Etusivu
METAR-TAF:

METAR-TAF

Lentoasemat :

Oujda, Marokko

Leveyspiiri: 34-47N, Pituuspiiri: 001-56W, korkeus merenpinnasta: 468 m

Tämänhetkinen sää

Tämä raportti tehtiin 22 minuuttia sitten, kello 14.30 UTC
Tuuli 16 kn luoteesta
Lämpötila 33°C
Kosteus 44%
Ilmanpaine 1013 hPa
Näkyvyys 10 km tai enemmän
ei pilviä alle 1500 m:ssä eikä cumulonimbus-pilviä

METAR: GMFO 281430Z 32016KT CAVOK 33/19 Q1013 NOSIG

Aika: 15:52 (14:52 UTC)

Sääennuste

Tämä raportti tehtiin 3 tuntia ja 52 minuuttia sitten, kello 11.00 UTC
Ennuste voimassa 28. päivästä klo 12 UTC - 29. päivään klo 18 UTC
Tuuli 5 kn pohjoisesta/koillisesta
Näkyvyys 10 km tai enemmän
ei pilviä alle 1500 m:ssä eikä cumulonimbus-pilviä
Tulossa
28. päivästä klo 13 UTC - 28. päivään klo 17 UTC
Tuuli 16 kn pohjoisesta
Todennäköisyys 30% :
Ajoittain
29. päivästä klo 02 UTC - 29. päivään klo 07 UTC
Näkyvyys: 4000 m
utua

TAF: GMFO 281100Z 2812/2918 03005KT CAVOK BECMG 2813/2817 36016KT PROB30 TEMPO 2902/2907 4000 BR

Säähavainnot ja -ennusteet yli 4000 lentoasemalta (METAR- ja TAF-raportit).

Käytössä olevat sääasemat on merkitty karttaan keltaisilla ja punaisilla pisteillä.

Aseta hiiri pisteen päälle nähdäksesi sääaseman nimen.

Klikkaa sitten nähdäksesi säähavainnot ja -ennusteet.

Kartan vaihtaminen: klikkaa mustalla rastilla varustettuja vihreitä pisteitä, niin voit zoomata sisään; viivalla varustettua vihreää pistettä, niin voit zoomata ulos tai vihreitä nuolia, niin pääset viereisille kartoille.


METAR-TAF: